createdAt,value
2023-03-29T00:02:05.212Z,12.40
2023-03-29T00:04:32.068Z,10.45
2023-03-29T00:07:04.742Z,9.70
2023-03-29T00:09:33.386Z,22.35
2023-03-29T00:12:01.568Z,10.95
2023-03-29T00:14:30.792Z,16.23
2023-03-29T00:16:58.718Z,13.45
2023-03-29T00:19:25.906Z,14.90
2023-03-29T00:21:52.673Z,10.85
2023-03-29T00:24:21.143Z,15.00
2023-03-29T00:26:48.414Z,15.13
2023-03-29T00:29:15.077Z,7.13
2023-03-29T00:31:41.730Z,16.50
2023-03-29T00:34:08.421Z,11.52
2023-03-29T00:36:35.068Z,10.35
2023-03-29T00:39:01.896Z,9.50
2023-03-29T00:41:28.552Z,11.80
2023-03-29T00:44:01.142Z,13.52
2023-03-29T00:46:30.356Z,14.98
2023-03-29T00:49:09.674Z,10.32
2023-03-29T00:51:41.419Z,10.60
2023-03-29T00:54:14.958Z,13.00
2023-03-29T00:56:46.724Z,12.38
2023-03-29T00:59:18.812Z,13.80
2023-03-29T01:04:36.457Z,11.25
2023-03-29T01:07:18.800Z,11.43
2023-03-29T01:09:52.882Z,11.88
2023-03-29T01:12:32.786Z,13.25
2023-03-29T01:15:12.409Z,11.68
2023-03-29T01:17:40.541Z,11.70
2023-03-29T01:20:20.355Z,7.18
2023-03-29T01:23:27.454Z,13.07
2023-03-29T01:26:18.975Z,9.88
2023-03-29T01:28:51.766Z,6.13
2023-03-29T01:31:32.591Z,16.10
2023-03-29T01:34:07.654Z,17.73
2023-03-29T01:36:43.313Z,11.65
2023-03-29T01:39:09.934Z,14.32
2023-03-29T01:41:59.427Z,15.45
2023-03-29T01:44:31.895Z,11.00
2023-03-29T01:47:30.071Z,10.80
2023-03-29T01:50:05.644Z,9.80
2023-03-29T01:52:44.303Z,10.65
2023-03-29T01:55:18.574Z,13.30
2023-03-29T01:57:48.271Z,12.30
2023-03-29T02:00:19.245Z,17.25
2023-03-29T02:02:47.573Z,15.50
2023-03-29T02:05:16.667Z,16.63
2023-03-29T02:07:46.235Z,12.13
2023-03-29T02:10:14.640Z,9.57
2023-03-29T02:12:41.671Z,14.98
2023-03-29T02:15:14.841Z,15.68
2023-03-29T02:17:43.730Z,18.50
2023-03-29T02:20:22.555Z,14.30
2023-03-29T02:23:02.371Z,14.95
2023-03-29T02:25:29.625Z,13.60
2023-03-29T02:27:57.235Z,13.52
2023-03-29T02:30:30.508Z,13.10
2023-03-29T02:33:15.779Z,12.85
2023-03-29T02:35:54.639Z,25.20
2023-03-29T02:38:22.084Z,13.00
2023-03-29T02:40:48.876Z,16.73
2023-03-29T02:43:17.087Z,11.10
2023-03-29T02:45:45.005Z,14.15
2023-03-29T02:48:17.463Z,14.30
2023-03-29T02:50:47.700Z,26.38
2023-03-29T02:53:18.201Z,13.73
2023-03-29T02:55:46.233Z,14.55
2023-03-29T02:58:15.549Z,14.52
2023-03-29T03:00:45.817Z,16.27
2023-03-29T03:03:13.463Z,14.95
2023-03-29T03:05:40.142Z,29.85
2023-03-29T03:08:07.743Z,17.73
2023-03-29T03:10:35.705Z,18.40
2023-03-29T03:13:02.966Z,23.40
2023-03-29T03:15:31.166Z,25.10
2023-03-29T03:17:57.960Z,27.10
2023-03-29T03:20:24.711Z,23.70
2023-03-29T03:22:51.350Z,26.77
2023-03-29T03:25:21.195Z,20.45
2023-03-29T03:27:49.778Z,15.55
2023-03-29T03:30:17.442Z,15.90
2023-03-29T03:32:44.741Z,14.43
2023-03-29T03:35:12.583Z,23.52
2023-03-29T03:37:40.177Z,18.35
2023-03-29T03:40:09.034Z,15.85
2023-03-29T03:42:35.826Z,19.88
2023-03-29T03:45:02.567Z,19.83
2023-03-29T03:47:29.356Z,16.17
2023-03-29T03:49:56.486Z,21.85
2023-03-29T03:52:23.395Z,18.92
2023-03-29T03:54:50.342Z,13.38
2023-03-29T03:57:17.542Z,12.70
2023-03-29T03:59:44.313Z,16.38
2023-03-29T04:02:11.249Z,15.45
2023-03-29T04:04:38.087Z,16.67
2023-03-29T04:07:04.865Z,15.57
2023-03-29T04:09:33.405Z,11.98
2023-03-29T04:12:01.629Z,13.23
2023-03-29T04:14:28.607Z,8.52
2023-03-29T04:16:55.787Z,15.65
2023-03-29T04:19:23.140Z,15.02
2023-03-29T04:21:51.299Z,22.10
2023-03-29T04:24:17.988Z,16.63
2023-03-29T04:26:44.719Z,21.15
2023-03-29T04:29:11.849Z,17.15
2023-03-29T04:31:38.588Z,18.40
2023-03-29T04:34:05.310Z,13.35
2023-03-29T04:36:32.108Z,17.48
2023-03-29T04:39:01.507Z,27.08
2023-03-29T04:41:29.052Z,22.98
2023-03-29T04:43:56.264Z,25.70
2023-03-29T04:46:26.671Z,29.65
2023-03-29T04:48:54.318Z,17.85
2023-03-29T04:51:22.465Z,20.33
2023-03-29T04:53:50.534Z,18.90
2023-03-29T04:56:17.436Z,29.73
2023-03-29T04:58:44.676Z,28.00
2023-03-29T05:01:11.604Z,26.15
2023-03-29T05:03:38.534Z,30.20
2023-03-29T05:06:09.409Z,17.13
2023-03-29T05:08:40.163Z,20.35
2023-03-29T05:11:08.979Z,21.02
2023-03-29T05:13:36.205Z,22.27
2023-03-29T05:16:04.410Z,19.23
2023-03-29T05:18:31.966Z,19.38
2023-03-29T05:20:59.835Z,16.23
2023-03-29T05:23:28.894Z,12.82
2023-03-29T05:25:55.618Z,11.40
2023-03-29T05:28:23.006Z,20.48
2023-03-29T05:31:01.249Z,21.10
2023-03-29T05:33:28.240Z,10.43
2023-03-29T05:36:02.544Z,14.15
2023-03-29T05:38:30.227Z,17.70
2023-03-29T05:40:57.618Z,21.90
2023-03-29T05:43:24.339Z,15.25
2023-03-29T05:45:56.370Z,20.70
2023-03-29T05:48:23.971Z,21.10
2023-03-29T05:50:52.366Z,14.32
2023-03-29T05:53:20.052Z,18.33
2023-03-29T05:55:47.369Z,16.25
2023-03-29T05:58:15.663Z,23.40
2023-03-29T06:00:42.921Z,16.17
2023-03-29T06:03:21.542Z,20.55
2023-03-29T06:05:59.331Z,19.23
2023-03-29T06:08:27.693Z,24.15
2023-03-29T06:11:10.928Z,25.70
2023-03-29T06:13:39.053Z,17.85
2023-03-29T06:16:13.525Z,12.93
2023-03-29T06:18:41.204Z,16.42
2023-03-29T06:21:09.406Z,22.70
2023-03-29T06:23:36.989Z,14.93
2023-03-29T06:26:04.034Z,18.10
2023-03-29T06:28:30.699Z,11.50
2023-03-29T06:31:02.725Z,12.98
2023-03-29T06:33:30.933Z,5.55
2023-03-29T06:35:58.172Z,10.40
2023-03-29T06:38:26.821Z,6.60
2023-03-29T06:41:02.455Z,14.82
2023-03-29T06:43:29.536Z,7.65
2023-03-29T06:45:56.352Z,6.50
2023-03-29T06:48:23.033Z,10.30
2023-03-29T06:50:49.810Z,6.38
2023-03-29T06:53:17.106Z,5.47
2023-03-29T06:55:43.836Z,5.22
2023-03-29T06:58:11.140Z,6.30
2023-03-29T07:00:39.281Z,2.58
2023-03-29T07:03:08.125Z,7.65
2023-03-29T07:05:36.577Z,5.38
2023-03-29T07:08:06.378Z,7.47
2023-03-29T07:10:38.374Z,4.65
2023-03-29T07:13:07.093Z,3.13
2023-03-29T07:15:33.900Z,5.55
2023-03-29T07:18:02.625Z,7.78
2023-03-29T07:20:29.365Z,3.92
2023-03-29T07:22:56.127Z,4.93
2023-03-29T07:25:24.200Z,2.92
2023-03-29T07:27:52.217Z,3.05
2023-03-29T07:30:23.685Z,3.30
2023-03-29T07:32:52.449Z,2.95
2023-03-29T07:35:19.163Z,4.95
2023-03-29T07:37:46.471Z,0.45
2023-03-29T07:40:18.907Z,2.90
2023-03-29T07:42:46.770Z,5.55
2023-03-29T07:45:16.439Z,4.57
2023-03-29T07:47:44.718Z,5.50
2023-03-29T07:50:12.248Z,6.68
2023-03-29T07:52:39.724Z,9.75
2023-03-29T07:55:08.714Z,4.95
2023-03-29T07:57:35.995Z,6.35
2023-03-29T08:00:16.038Z,5.00
2023-03-29T08:02:44.454Z,5.35
2023-03-29T08:05:13.086Z,4.60
2023-03-29T08:07:41.410Z,3.80
2023-03-29T08:10:13.863Z,4.78
2023-03-29T08:12:41.241Z,4.82
2023-03-29T08:15:08.807Z,4.93
2023-03-29T08:17:36.328Z,7.95
2023-03-29T08:20:05.988Z,4.57
2023-03-29T08:22:34.217Z,4.25
2023-03-29T08:25:00.925Z,2.50
2023-03-29T08:27:27.575Z,7.78
2023-03-29T08:29:54.434Z,3.30
2023-03-29T08:32:21.474Z,5.30
2023-03-29T08:34:48.345Z,5.40
2023-03-29T08:37:15.033Z,1.90
2023-03-29T08:39:41.925Z,5.57
2023-03-29T08:42:27.183Z,3.50
2023-03-29T08:44:59.531Z,3.65
2023-03-29T08:47:44.483Z,1.63
2023-03-29T08:50:13.955Z,5.13
2023-03-29T08:52:46.774Z,2.35
2023-03-29T08:55:42.306Z,4.75
2023-03-29T08:58:17.253Z,2.97
2023-03-29T09:00:55.426Z,1.73
2023-03-29T09:03:34.354Z,1.38
2023-03-29T09:06:07.770Z,1.85
2023-03-29T09:08:54.897Z,0.65
2023-03-29T09:11:24.428Z,1.27
2023-03-29T09:13:57.727Z,7.78
2023-03-29T09:16:24.486Z,4.10
2023-03-29T09:19:10.229Z,1.23
2023-03-29T09:21:57.134Z,8.23
2023-03-29T09:24:52.799Z,1.77
2023-03-29T09:27:28.501Z,2.42
2023-03-29T09:30:25.899Z,3.28
2023-03-29T09:33:14.321Z,3.88
2023-03-29T09:35:47.289Z,2.47
2023-03-29T09:38:16.185Z,2.63
2023-03-29T09:40:51.467Z,0.80
2023-03-29T09:43:27.082Z,3.88
2023-03-29T09:45:57.304Z,2.17
2023-03-29T09:48:27.134Z,2.50
2023-03-29T09:50:54.226Z,3.80
2023-03-29T09:53:21.924Z,1.85
2023-03-29T09:55:50.641Z,4.07
2023-03-29T09:58:22.692Z,4.95
2023-03-29T10:00:50.064Z,4.32
2023-03-29T10:03:31.232Z,6.50
2023-03-29T10:06:01.653Z,2.83
2023-03-29T10:08:59.331Z,4.82
2023-03-29T10:11:34.797Z,1.52
2023-03-29T10:14:06.564Z,4.85
2023-03-29T10:16:41.565Z,2.22
2023-03-29T10:19:28.451Z,4.40
2023-03-29T10:22:01.209Z,6.82
2023-03-29T10:24:28.375Z,7.47
2023-03-29T10:27:00.189Z,3.17
2023-03-29T10:29:27.949Z,5.32
2023-03-29T10:31:55.250Z,3.85
2023-03-29T10:34:26.174Z,4.72
2023-03-29T10:36:59.913Z,4.60
2023-03-29T10:39:34.134Z,1.63
2023-03-29T10:42:03.814Z,4.10
2023-03-29T10:44:33.372Z,3.75
2023-03-29T10:47:20.440Z,6.80
2023-03-29T10:49:56.455Z,6.22
2023-03-29T10:52:23.758Z,8.57
2023-03-29T10:54:52.740Z,5.03
2023-03-29T10:57:31.066Z,7.20
2023-03-29T11:00:18.715Z,2.13
2023-03-29T11:03:14.325Z,6.13
2023-03-29T11:05:52.529Z,6.45
2023-03-29T11:08:35.417Z,3.38
2023-03-29T11:11:11.023Z,6.63
2023-03-29T11:14:05.414Z,6.18
2023-03-29T11:16:50.141Z,3.85
2023-03-29T11:19:19.764Z,7.07
2023-03-29T11:21:59.288Z,8.15
2023-03-29T11:24:57.577Z,3.83
2023-03-29T11:27:38.835Z,7.88
2023-03-29T11:30:08.699Z,6.55
2023-03-29T11:33:03.209Z,7.00
2023-03-29T11:35:34.547Z,8.68
2023-03-29T11:38:07.085Z,5.87
2023-03-29T11:41:20.201Z,1.95
2023-03-29T11:43:56.302Z,2.30
2023-03-29T11:46:34.509Z,5.30
2023-03-29T11:49:32.274Z,4.80
2023-03-29T11:52:23.386Z,4.78
2023-03-29T11:55:13.308Z,8.05
2023-03-29T11:58:12.755Z,7.82
2023-03-29T12:00:45.707Z,6.90
2023-03-29T12:03:41.561Z,4.70
2023-03-29T12:06:18.979Z,4.32
2023-03-29T12:08:56.703Z,9.77
2023-03-29T12:11:27.226Z,8.30
2023-03-29T12:14:04.986Z,3.58
2023-03-29T12:16:37.983Z,4.13
2023-03-29T12:19:14.442Z,7.25
2023-03-29T12:21:42.432Z,6.78
2023-03-29T12:24:16.381Z,3.25
2023-03-29T12:27:10.670Z,3.75
2023-03-29T12:29:48.722Z,5.32
2023-03-29T12:32:40.818Z,7.00
2023-03-29T12:35:24.594Z,4.40
2023-03-29T12:38:10.274Z,8.65
2023-03-29T12:40:45.810Z,10.80
2023-03-29T12:43:20.746Z,7.47
2023-03-29T12:45:51.173Z,6.25
2023-03-29T12:48:22.367Z,7.13
2023-03-29T12:50:52.894Z,7.37
2023-03-29T12:53:26.685Z,13.02
2023-03-29T12:56:02.772Z,6.95
2023-03-29T12:59:09.504Z,11.18
2023-03-29T13:01:42.939Z,11.60
2023-03-29T13:04:20.183Z,14.93
2023-03-29T13:06:46.754Z,14.50
2023-03-29T13:09:48.731Z,15.35
2023-03-29T13:12:15.951Z,13.50
2023-03-29T13:14:46.431Z,9.90
2023-03-29T13:17:42.889Z,23.10
2023-03-29T13:20:32.107Z,18.75
2023-03-29T13:22:58.659Z,16.90
2023-03-29T13:25:44.704Z,17.52
2023-03-29T13:28:29.726Z,21.92
2023-03-29T13:31:48.883Z,14.80
2023-03-29T13:34:44.151Z,19.58
2023-03-29T13:37:21.001Z,22.42
2023-03-29T13:39:53.093Z,20.60
2023-03-29T13:42:26.269Z,15.10
2023-03-29T13:44:53.951Z,30.48
2023-03-29T13:47:33.097Z,20.63
2023-03-29T13:50:16.620Z,18.75
2023-03-29T13:52:59.596Z,21.35
2023-03-29T13:55:33.647Z,20.15
2023-03-29T13:58:14.600Z,18.88
2023-03-29T14:00:52.129Z,22.98
2023-03-29T14:03:26.279Z,25.52
2023-03-29T14:05:59.014Z,16.58
2023-03-29T14:08:36.712Z,16.70
2023-03-29T14:11:05.943Z,24.45
2023-03-29T14:13:33.435Z,19.27
2023-03-29T14:16:04.461Z,20.50
2023-03-29T14:18:40.551Z,22.27
2023-03-29T14:21:08.575Z,20.08
2023-03-29T14:23:37.777Z,18.75
2023-03-29T14:26:30.456Z,24.02
2023-03-29T14:28:58.996Z,22.30
2023-03-29T14:31:33.991Z,22.58
2023-03-29T14:34:02.968Z,19.55
2023-03-29T14:36:32.499Z,22.33
2023-03-29T14:39:19.336Z,21.23
2023-03-29T14:41:54.797Z,16.52
2023-03-29T14:44:24.280Z,20.17
2023-03-29T14:46:51.069Z,15.07
2023-03-29T14:49:19.626Z,19.83
2023-03-29T14:51:47.438Z,20.30
2023-03-29T14:54:25.034Z,20.45
2023-03-29T14:56:52.616Z,18.27
2023-03-29T14:59:37.146Z,28.20
2023-03-29T15:02:04.564Z,15.98
2023-03-29T15:04:36.036Z,25.90
2023-03-29T15:07:04.996Z,23.90
2023-03-29T15:09:34.695Z,20.23
2023-03-29T15:12:03.420Z,22.40
2023-03-29T15:14:36.999Z,27.65
2023-03-29T15:17:33.485Z,19.95
2023-03-29T15:22:39.565Z,25.67
2023-03-29T15:25:17.628Z,19.67
2023-03-29T15:27:45.202Z,17.90
2023-03-29T15:30:15.178Z,15.07
2023-03-29T15:32:41.937Z,21.45
2023-03-29T15:35:22.492Z,24.17
2023-03-29T15:37:49.899Z,18.08
2023-03-29T15:40:18.650Z,21.75
2023-03-29T15:42:45.621Z,20.08
2023-03-29T15:45:17.744Z,23.00
2023-03-29T15:47:45.046Z,30.50
2023-03-29T15:50:11.870Z,50.08
2023-03-29T15:52:38.625Z,25.98
2023-03-29T15:55:05.739Z,19.92
2023-03-29T15:57:32.573Z,27.70
2023-03-29T15:59:59.619Z,27.70
2023-03-29T16:02:26.587Z,21.33
2023-03-29T16:04:53.663Z,25.48
2023-03-29T16:07:21.083Z,23.10
2023-03-29T16:09:47.851Z,23.92
2023-03-29T16:12:16.413Z,31.30
2023-03-29T16:14:43.405Z,23.73
2023-03-29T16:17:10.189Z,23.38
2023-03-29T16:19:36.815Z,25.27
2023-03-29T16:22:07.607Z,21.85
2023-03-29T16:24:35.019Z,20.83
2023-03-29T16:27:02.717Z,29.08
2023-03-29T16:29:30.205Z,19.70
2023-03-29T16:31:57.376Z,27.95
2023-03-29T16:34:24.177Z,23.45
2023-03-29T16:36:50.974Z,33.92
2023-03-29T16:39:18.382Z,16.23
2023-03-29T16:41:48.461Z,25.55
2023-03-29T16:44:23.853Z,27.38
2023-03-29T16:46:53.975Z,31.58
2023-03-29T16:49:20.966Z,19.65
2023-03-29T16:51:48.482Z,23.73
2023-03-29T16:54:17.280Z,27.75
2023-03-29T16:56:44.014Z,25.38
2023-03-29T16:59:12.055Z,29.05
2023-03-29T17:01:40.669Z,21.13
2023-03-29T17:04:07.801Z,17.98
2023-03-29T17:06:34.624Z,23.95
2023-03-29T17:09:01.301Z,25.92
2023-03-29T17:11:29.020Z,26.55
2023-03-29T17:13:56.179Z,27.50
2023-03-29T17:16:23.262Z,13.95
2023-03-29T17:18:50.073Z,24.02
2023-03-29T17:21:16.849Z,20.80
2023-03-29T17:23:43.533Z,25.10
2023-03-29T17:26:11.941Z,26.75
2023-03-29T17:28:38.950Z,22.48
2023-03-29T17:31:09.760Z,30.38
2023-03-29T17:33:37.419Z,24.67
2023-03-29T17:36:05.979Z,29.98
2023-03-29T17:38:34.321Z,18.98
2023-03-29T17:41:04.712Z,16.90
2023-03-29T17:43:31.951Z,23.65
2023-03-29T17:45:58.616Z,18.98
2023-03-29T17:48:26.103Z,27.02
2023-03-29T17:50:56.131Z,19.45
2023-03-29T17:53:23.116Z,23.38
2023-03-29T17:55:49.897Z,35.83
2023-03-29T17:58:16.732Z,19.77
2023-03-29T18:00:43.894Z,24.02
2023-03-29T18:03:11.180Z,18.40
2023-03-29T18:05:38.075Z,21.48
2023-03-29T18:08:05.002Z,15.38
2023-03-29T18:10:32.449Z,21.80
2023-03-29T18:12:59.063Z,26.17
2023-03-29T18:15:25.714Z,22.35
2023-03-29T18:17:52.440Z,29.98
2023-03-29T18:20:20.507Z,22.20
2023-03-29T18:22:47.316Z,26.13
2023-03-29T18:25:14.862Z,27.25
2023-03-29T18:27:41.663Z,21.42
2023-03-29T18:30:08.983Z,21.13
2023-03-29T18:32:36.422Z,28.77
2023-03-29T18:35:03.957Z,17.73
2023-03-29T18:37:31.104Z,28.58
2023-03-29T18:39:57.905Z,28.17
2023-03-29T18:42:24.550Z,21.55
2023-03-29T18:44:51.396Z,19.70
2023-03-29T18:47:18.464Z,20.90
2023-03-29T18:49:45.284Z,17.17
2023-03-29T18:52:12.222Z,30.40
2023-03-29T18:54:38.980Z,21.23
2023-03-29T18:57:05.721Z,20.52
2023-03-29T18:59:32.397Z,27.80
2023-03-29T19:01:59.157Z,19.10
2023-03-29T19:04:27.183Z,26.55
2023-03-29T19:06:55.596Z,17.75
2023-03-29T19:09:23.295Z,39.60
2023-03-29T19:11:49.915Z,22.75
2023-03-29T19:14:17.500Z,23.25
2023-03-29T19:16:44.272Z,19.52
2023-03-29T19:19:11.113Z,23.80
2023-03-29T19:21:38.609Z,17.77
2023-03-29T19:24:07.757Z,13.98
2023-03-29T19:26:35.433Z,24.75
2023-03-29T19:29:02.095Z,18.75
2023-03-29T19:31:28.832Z,16.27
2023-03-29T19:33:56.196Z,10.43
2023-03-29T19:36:23.080Z,22.33
2023-03-29T19:38:50.178Z,18.10
2023-03-29T19:41:16.939Z,21.23
2023-03-29T19:43:43.863Z,12.80
2023-03-29T19:46:12.456Z,20.63
2023-03-29T19:48:39.764Z,17.52
2023-03-29T19:51:06.881Z,28.63
2023-03-29T19:53:33.742Z,22.70
2023-03-29T19:56:01.986Z,18.05
2023-03-29T19:58:28.870Z,23.52
2023-03-29T20:00:59.540Z,22.00
2023-03-29T20:03:30.014Z,17.48
2023-03-29T20:05:57.167Z,20.67
2023-03-29T20:08:24.934Z,19.08
2023-03-29T20:10:59.530Z,18.45
2023-03-29T20:13:37.655Z,19.52
2023-03-29T20:16:15.000Z,16.27
2023-03-29T20:18:44.835Z,25.05
2023-03-29T20:21:17.103Z,16.95
2023-03-29T20:26:11.109Z,24.27
2023-03-29T20:28:37.941Z,19.48
2023-03-29T20:31:07.197Z,17.65
2023-03-29T20:33:33.935Z,18.30
2023-03-29T20:36:00.951Z,30.23
2023-03-29T20:38:27.856Z,16.67
2023-03-29T20:40:55.441Z,21.30
2023-03-29T20:43:22.573Z,20.02
2023-03-29T20:45:53.947Z,16.42
2023-03-29T20:48:30.272Z,22.17
2023-03-29T20:50:57.785Z,18.85
2023-03-29T20:53:25.402Z,21.75
2023-03-29T20:55:52.857Z,16.02
2023-03-29T20:58:19.486Z,16.40
2023-03-29T21:00:48.458Z,16.50
2023-03-29T21:03:15.296Z,23.98
2023-03-29T21:05:43.472Z,24.42
2023-03-29T21:08:10.681Z,17.48
2023-03-29T21:10:37.509Z,13.65
2023-03-29T21:13:04.233Z,18.23
2023-03-29T21:15:32.019Z,14.55
2023-03-29T21:17:58.938Z,18.80
2023-03-29T21:20:25.875Z,21.95
2023-03-29T21:22:52.595Z,23.20
2023-03-29T21:25:19.503Z,20.20
2023-03-29T21:27:46.409Z,12.73
2023-03-29T21:30:13.694Z,21.77
2023-03-29T21:32:41.229Z,21.20
2023-03-29T21:35:08.730Z,23.38
2023-03-29T21:37:42.531Z,25.20
2023-03-29T21:40:10.787Z,22.88
2023-03-29T21:42:37.498Z,15.20
2023-03-29T21:45:04.794Z,14.90
2023-03-29T21:47:31.665Z,13.93
2023-03-29T21:49:58.517Z,23.25
2023-03-29T21:52:25.524Z,21.63
2023-03-29T21:54:52.278Z,12.80
2023-03-29T21:57:20.113Z,19.38
2023-03-29T21:59:47.876Z,17.27
2023-03-29T22:02:14.672Z,18.80
2023-03-29T22:04:46.132Z,21.83
2023-03-29T22:07:12.856Z,20.50
2023-03-29T22:09:41.840Z,23.33
2023-03-29T22:12:10.032Z,20.30
2023-03-29T22:14:36.781Z,21.30
2023-03-29T22:17:07.944Z,27.48
2023-03-29T22:19:41.806Z,23.10
2023-03-29T22:22:13.800Z,26.92
2023-03-29T22:24:42.017Z,18.38
2023-03-29T22:27:09.302Z,21.10
2023-03-29T22:29:36.870Z,24.35
2023-03-29T22:32:03.902Z,29.88
2023-03-29T22:34:30.588Z,18.27
2023-03-29T22:36:57.247Z,22.60
2023-03-29T22:39:23.925Z,21.75
2023-03-29T22:41:50.768Z,22.67
2023-03-29T22:44:17.478Z,19.50
2023-03-29T22:46:44.143Z,21.27
2023-03-29T22:49:10.788Z,24.40
2023-03-29T22:51:37.510Z,17.88
2023-03-29T22:54:04.321Z,28.02
2023-03-29T22:56:31.102Z,21.00
2023-03-29T22:58:57.881Z,29.60
2023-03-29T23:01:24.663Z,32.20
2023-03-29T23:03:51.824Z,33.35
2023-03-29T23:06:18.567Z,27.35
2023-03-29T23:08:45.441Z,28.02
2023-03-29T23:11:12.333Z,24.42
2023-03-29T23:13:39.031Z,21.77
2023-03-29T23:16:06.105Z,31.10
2023-03-29T23:18:35.025Z,21.48
2023-03-29T23:21:02.466Z,33.22
2023-03-29T23:23:29.322Z,24.17
2023-03-29T23:25:56.193Z,28.65
2023-03-29T23:28:25.137Z,26.00
2023-03-29T23:31:00.622Z,20.60
2023-03-29T23:33:28.811Z,25.50
2023-03-29T23:35:55.431Z,24.00
2023-03-29T23:38:22.867Z,23.10
2023-03-29T23:40:58.961Z,21.58
2023-03-29T23:43:27.354Z,17.70
2023-03-29T23:45:57.925Z,17.55
2023-03-29T23:48:24.870Z,21.02
2023-03-29T23:50:52.083Z,26.27
2023-03-29T23:53:19.949Z,20.98
2023-03-29T23:55:48.380Z,16.95
2023-03-29T23:58:16.553Z,30.33
